createdAt,value
2018-03-17T00:01:24.821Z,3.60
2018-03-17T00:03:52.328Z,3.50
2018-03-17T00:06:19.869Z,3.60
2018-03-17T00:08:48.172Z,3.50
2018-03-17T00:11:15.693Z,3.50
2018-03-17T00:13:43.956Z,3.60
2018-03-17T00:16:11.542Z,3.60
2018-03-17T00:18:39.826Z,3.70
2018-03-17T00:21:07.678Z,3.60
2018-03-17T00:23:35.944Z,3.80
2018-03-17T00:26:04.336Z,3.80
2018-03-17T00:28:32.609Z,3.80
2018-03-17T00:31:01.004Z,3.80
2018-03-17T00:33:28.503Z,3.80
2018-03-17T00:35:56.020Z,3.80
2018-03-17T00:38:23.520Z,3.80
2018-03-17T00:40:51.053Z,3.70
2018-03-17T00:43:18.528Z,3.70
2018-03-17T00:45:46.051Z,3.50
2018-03-17T00:48:13.598Z,3.60
2018-03-17T00:50:41.892Z,3.50
2018-03-17T00:53:09.396Z,3.50
2018-03-17T00:55:36.910Z,3.50
2018-03-17T00:58:04.432Z,3.40
2018-03-17T01:00:31.960Z,3.30
2018-03-17T01:02:59.448Z,3.30
2018-03-17T01:05:26.984Z,3.30
2018-03-17T01:07:54.468Z,3.20
2018-03-17T01:10:22.048Z,3.10
2018-03-17T01:12:50.429Z,3.10
2018-03-17T01:15:17.998Z,3.10
2018-03-17T01:17:45.500Z,3.10
2018-03-17T01:20:13.052Z,3.10
2018-03-17T01:22:40.575Z,3.10
2018-03-17T01:25:08.093Z,3.00
2018-03-17T01:27:35.570Z,3.10
2018-03-17T01:30:03.845Z,3.20
2018-03-17T01:32:32.223Z,3.10
2018-03-17T01:35:00.512Z,3.10
2018-03-17T01:37:28.081Z,3.10
2018-03-17T01:39:55.579Z,3.10
2018-03-17T01:42:23.132Z,3.20
2018-03-17T01:44:50.623Z,3.20
2018-03-17T01:47:18.163Z,3.10
2018-03-17T01:49:46.510Z,3.10
2018-03-17T01:52:14.072Z,3.10
2018-03-17T01:54:41.610Z,3.10
2018-03-17T01:57:09.136Z,3.10
2018-03-17T01:59:36.640Z,3.00
2018-03-17T02:02:04.187Z,3.00
2018-03-17T02:04:31.699Z,2.90
2018-03-17T02:06:59.237Z,2.90
2018-03-17T02:09:26.852Z,2.90
2018-03-17T02:11:55.247Z,2.90
2018-03-17T02:14:22.768Z,2.90
2018-03-17T02:16:50.323Z,2.90
2018-03-17T02:19:17.822Z,2.90
2018-03-17T02:21:45.368Z,2.90
2018-03-17T02:24:13.607Z,2.80
2018-03-17T02:26:41.140Z,2.80
2018-03-17T02:29:08.763Z,2.80
2018-03-17T02:31:37.047Z,2.60
2018-03-17T02:34:04.556Z,2.60
2018-03-17T02:36:41.989Z,2.50
2018-03-17T02:39:10.244Z,2.40
2018-03-17T02:41:37.776Z,2.40
2018-03-17T02:44:05.382Z,2.30
2018-03-17T02:46:33.685Z,2.30
2018-03-17T02:49:01.174Z,2.20
2018-03-17T02:51:28.735Z,2.30
2018-03-17T02:53:56.247Z,2.30
2018-03-17T02:56:24.547Z,2.40
2018-03-17T02:58:52.067Z,2.40
2018-03-17T03:01:20.390Z,2.40
2018-03-17T03:03:47.889Z,2.40
2018-03-17T03:06:15.465Z,2.40
2018-03-17T03:08:43.742Z,2.40
2018-03-17T03:11:12.122Z,2.40
2018-03-17T03:13:40.409Z,2.40
2018-03-17T03:16:07.958Z,2.30
2018-03-17T03:18:35.492Z,2.30
2018-03-17T03:21:03.102Z,2.30
2018-03-17T03:23:30.629Z,2.30
2018-03-17T03:25:58.955Z,2.30
2018-03-17T03:28:26.447Z,2.30
2018-03-17T03:30:53.959Z,2.30
2018-03-17T03:33:21.485Z,2.20
2018-03-17T03:35:49.752Z,2.10
2018-03-17T03:38:18.047Z,2.10
2018-03-17T03:40:45.573Z,2.00
2018-03-17T03:43:13.087Z,2.00
2018-03-17T03:45:40.585Z,2.00
2018-03-17T03:48:08.099Z,2.00
2018-03-17T03:50:35.596Z,2.10
2018-03-17T03:53:03.179Z,2.00
2018-03-17T03:55:31.457Z,2.00
2018-03-17T03:57:59.749Z,1.90
2018-03-17T04:00:27.294Z,1.90
2018-03-17T04:02:55.580Z,1.90
2018-03-17T04:05:23.829Z,1.90
2018-03-17T04:07:51.337Z,1.80
2018-03-17T04:10:18.868Z,1.80
2018-03-17T04:12:47.149Z,1.80
2018-03-17T04:15:14.662Z,1.80
2018-03-17T04:17:42.223Z,1.80
2018-03-17T04:20:09.719Z,1.80
2018-03-17T04:22:38.011Z,1.70
2018-03-17T04:27:39.594Z,1.80
2018-03-17T04:30:07.097Z,1.80
2018-03-17T04:32:34.631Z,1.80
2018-03-17T04:35:02.149Z,1.70
2018-03-17T04:37:30.432Z,1.70
2018-03-17T04:39:57.976Z,1.70
2018-03-17T04:42:26.279Z,1.70
2018-03-17T04:44:53.816Z,1.60
2018-03-17T04:47:22.148Z,1.60
2018-03-17T04:49:49.687Z,1.70
2018-03-17T04:52:17.218Z,1.60
2018-03-17T04:54:44.723Z,1.60
2018-03-17T04:57:12.287Z,1.60
2018-03-17T04:59:39.778Z,1.60
2018-03-17T05:02:08.082Z,1.60
2018-03-17T05:04:35.574Z,1.60
2018-03-17T05:07:03.181Z,1.60
2018-03-17T05:09:31.560Z,1.50
2018-03-17T05:11:59.894Z,1.50
2018-03-17T05:14:27.456Z,1.50
2018-03-17T05:16:55.039Z,1.40
2018-03-17T05:19:23.335Z,1.40
2018-03-17T05:21:51.610Z,1.40
2018-03-17T05:24:19.862Z,1.40
2018-03-17T05:26:47.398Z,1.40
2018-03-17T05:29:14.954Z,1.50
2018-03-17T05:31:42.453Z,1.40
2018-03-17T05:34:10.812Z,1.40
2018-03-17T05:36:38.328Z,1.40
2018-03-17T05:39:05.848Z,1.30
2018-03-17T05:41:34.208Z,1.30
2018-03-17T05:44:01.813Z,1.30
2018-03-17T05:46:29.361Z,1.30
2018-03-17T05:48:57.635Z,1.20
2018-03-17T05:51:25.908Z,1.10
2018-03-17T05:53:54.172Z,1.20
2018-03-17T05:56:22.497Z,1.20
2018-03-17T05:58:50.032Z,1.10
2018-03-17T06:01:17.549Z,1.20
2018-03-17T06:03:45.089Z,1.20
2018-03-17T06:06:12.588Z,1.30
2018-03-17T06:08:40.989Z,1.10
2018-03-17T06:11:08.492Z,1.10
2018-03-17T06:13:36.009Z,1.20
2018-03-17T06:16:03.505Z,1.20
2018-03-17T06:18:31.086Z,1.20
2018-03-17T06:20:58.598Z,1.20
2018-03-17T06:23:26.234Z,1.20
2018-03-17T06:25:54.512Z,1.10
2018-03-17T06:28:22.812Z,1.10
2018-03-17T06:30:50.347Z,1.00
2018-03-17T06:33:18.708Z,0.90
2018-03-17T06:35:46.984Z,0.80
2018-03-17T06:38:15.299Z,0.80
2018-03-17T06:40:42.807Z,0.80
2018-03-17T06:43:10.407Z,0.90
2018-03-17T06:45:38.043Z,0.90
2018-03-17T06:48:06.420Z,0.80
2018-03-17T06:50:34.682Z,0.80
2018-03-17T06:53:02.325Z,0.80
2018-03-17T06:55:29.981Z,0.70
2018-03-17T06:57:57.498Z,0.70
2018-03-17T07:00:25.753Z,0.80
2018-03-17T07:02:54.050Z,0.70
2018-03-17T07:05:21.594Z,0.70
2018-03-17T07:07:49.994Z,0.80
2018-03-17T07:10:17.543Z,0.70
2018-03-17T07:12:45.831Z,0.70
2018-03-17T07:15:14.301Z,0.70
2018-03-17T07:17:42.597Z,0.70
2018-03-17T07:20:10.122Z,0.60
2018-03-17T07:22:38.416Z,0.70
2018-03-17T07:25:05.898Z,0.70
2018-03-17T07:27:33.431Z,0.80
2018-03-17T07:30:01.699Z,0.70
2018-03-17T07:32:30.002Z,0.70
2018-03-17T07:34:57.542Z,0.70
2018-03-17T07:37:25.084Z,0.80
2018-03-17T07:39:53.368Z,0.90
2018-03-17T07:42:21.666Z,0.90
2018-03-17T07:44:49.200Z,0.90
2018-03-17T07:47:17.475Z,0.90
2018-03-17T07:49:45.739Z,0.90
2018-03-17T07:52:13.266Z,0.90
2018-03-17T07:54:40.785Z,0.80
2018-03-17T07:57:09.069Z,0.60
2018-03-17T07:59:36.557Z,0.60
2018-03-17T08:02:04.069Z,0.60
2018-03-17T08:04:32.347Z,0.50
2018-03-17T08:07:00.661Z,0.50
2018-03-17T08:09:28.158Z,0.50
2018-03-17T08:11:55.673Z,0.50
2018-03-17T08:14:23.207Z,0.60
2018-03-17T08:16:51.480Z,0.60
2018-03-17T08:19:19.044Z,0.50
2018-03-17T08:21:46.592Z,0.50
2018-03-17T08:24:14.865Z,0.50
2018-03-17T08:26:42.427Z,0.50
2018-03-17T08:29:10.791Z,0.50
2018-03-17T08:31:38.311Z,0.50
2018-03-17T08:34:05.887Z,0.50
2018-03-17T08:36:33.390Z,0.40
2018-03-17T08:39:00.900Z,0.40
2018-03-17T08:41:28.452Z,0.40
2018-03-17T08:43:55.980Z,0.40
2018-03-17T08:46:23.498Z,0.40
2018-03-17T08:48:51.021Z,0.50
2018-03-17T08:51:18.616Z,0.40
2018-03-17T08:53:46.190Z,0.40
2018-03-17T08:56:14.481Z,0.40
2018-03-17T08:58:42.071Z,0.50
2018-03-17T09:01:10.599Z,0.50
2018-03-17T09:03:38.729Z,0.40
2018-03-17T09:06:06.264Z,0.50
2018-03-17T09:08:33.752Z,0.40
2018-03-17T09:11:01.289Z,0.50
2018-03-17T09:13:28.827Z,0.50
2018-03-17T09:15:56.382Z,0.60
2018-03-17T09:18:24.646Z,0.60
2018-03-17T09:20:53.040Z,0.60
2018-03-17T09:23:20.559Z,0.60
2018-03-17T09:25:48.113Z,0.60
2018-03-17T09:28:15.617Z,0.60
2018-03-17T09:30:43.904Z,0.30
2018-03-17T09:33:11.483Z,0.30
2018-03-17T09:35:38.984Z,0.30
2018-03-17T09:38:06.567Z,0.30
2018-03-17T09:40:34.832Z,0.30
2018-03-17T09:43:03.122Z,0.20
2018-03-17T09:45:30.654Z,0.20
2018-03-17T09:47:58.144Z,0.20
2018-03-17T09:50:25.675Z,0.10
2018-03-17T09:52:53.167Z,0.20
2018-03-17T09:55:20.693Z,0.20
2018-03-17T09:57:48.210Z,0.30
2018-03-17T10:00:15.756Z,0.30
2018-03-17T10:02:43.264Z,0.30
2018-03-17T10:05:10.751Z,0.40
2018-03-17T10:07:38.288Z,0.40
2018-03-17T10:10:05.852Z,0.40
2018-03-17T10:12:34.146Z,0.40
2018-03-17T10:15:01.740Z,0.30
2018-03-17T10:17:29.313Z,0.40
2018-03-17T10:19:56.931Z,0.40
2018-03-17T10:22:24.480Z,0.30
2018-03-17T10:24:53.994Z,0.40
2018-03-17T10:27:22.292Z,0.50
2018-03-17T10:32:23.986Z,0.50
2018-03-17T10:34:51.654Z,0.40
2018-03-17T10:37:19.182Z,0.40
2018-03-17T10:39:46.713Z,0.30
2018-03-17T10:42:15.151Z,0.20
2018-03-17T10:44:42.613Z,0.20
2018-03-17T10:47:10.752Z,0.20
2018-03-17T10:49:38.252Z,0.20
2018-03-17T10:52:05.769Z,0.20
2018-03-17T10:54:33.265Z,0.10
2018-03-17T10:57:00.953Z,0.20
2018-03-17T10:59:28.448Z,0.10
2018-03-17T11:02:01.700Z,0.10
2018-03-17T11:04:30.038Z,0.20
2018-03-17T11:06:57.712Z,0.20
2018-03-17T11:09:25.219Z,0.20
2018-03-17T11:11:52.757Z,0.20
2018-03-17T11:14:20.316Z,0.20
2018-03-17T11:16:49.337Z,0.20
2018-03-17T11:19:16.844Z,0.20
2018-03-17T11:21:44.382Z,0.30
2018-03-17T11:24:11.899Z,0.10
2018-03-17T11:26:40.880Z,0.00
2018-03-17T11:29:08.719Z,0.00
2018-03-17T11:31:36.224Z,0.10
2018-03-17T11:34:03.772Z,0.10
2018-03-17T11:36:32.086Z,0.20
2018-03-17T11:39:09.660Z,0.10
2018-03-17T11:41:37.201Z,0.30
2018-03-17T11:44:07.864Z,0.40
2018-03-17T11:46:35.403Z,0.40
2018-03-17T11:49:02.987Z,0.40
2018-03-17T11:51:30.467Z,0.30
2018-03-17T11:53:58.062Z,0.30
2018-03-17T11:56:26.493Z,0.10
2018-03-17T11:58:55.042Z,0.00
2018-03-17T12:01:23.192Z,-0.10
2018-03-17T12:03:50.768Z,-0.10
2018-03-17T12:06:19.071Z,-0.20
2018-03-17T12:08:47.167Z,-0.20
2018-03-17T12:11:14.711Z,-0.30
2018-03-17T12:13:42.580Z,-0.30
2018-03-17T12:16:10.180Z,-0.30
2018-03-17T12:18:37.717Z,-0.20
2018-03-17T12:21:05.231Z,-0.30
2018-03-17T12:23:32.771Z,-0.30
2018-03-17T12:26:01.082Z,-0.30
2018-03-17T12:28:30.081Z,-0.30
2018-03-17T12:30:58.424Z,-0.10
2018-03-17T12:33:26.720Z,-0.10
2018-03-17T12:35:54.400Z,-0.10
2018-03-17T12:38:21.911Z,-0.10
2018-03-17T12:40:50.200Z,0.00
2018-03-17T12:43:18.482Z,0.00
2018-03-17T12:45:46.030Z,0.00
2018-03-17T12:48:14.537Z,0.00
2018-03-17T12:50:42.525Z,0.00
2018-03-17T12:53:10.136Z,0.00
2018-03-17T12:55:38.537Z,-0.10
2018-03-17T12:58:06.072Z,-0.10
2018-03-17T13:00:33.750Z,-0.10
2018-03-17T13:03:02.073Z,-0.10
2018-03-17T13:05:29.563Z,-0.10
2018-03-17T13:07:57.261Z,0.00
2018-03-17T13:10:26.398Z,0.00
2018-03-17T13:12:54.008Z,-0.10
2018-03-17T13:15:21.536Z,-0.20
2018-03-17T13:17:49.064Z,-0.20
2018-03-17T13:20:16.585Z,-0.30
2018-03-17T13:22:56.024Z,-0.30
2018-03-17T13:25:24.494Z,-0.20
2018-03-17T13:28:04.503Z,-0.20
2018-03-17T13:30:32.017Z,-0.20
2018-03-17T13:32:59.592Z,-0.20
2018-03-17T13:35:38.977Z,-0.20
2018-03-17T13:38:06.569Z,-0.30
2018-03-17T13:40:42.140Z,-0.40
2018-03-17T13:43:09.667Z,-0.40
2018-03-17T13:45:37.960Z,-0.10
2018-03-17T13:48:05.741Z,-0.10
2018-03-17T13:50:33.286Z,-0.20
2018-03-17T13:53:00.857Z,-0.30
2018-03-17T13:55:28.395Z,-0.40
2018-03-17T13:57:56.007Z,-0.40
2018-03-17T14:00:23.568Z,-0.50
2018-03-17T14:02:51.916Z,-0.50
2018-03-17T14:05:19.448Z,-0.50
2018-03-17T14:07:47.784Z,-0.40
2018-03-17T14:10:15.363Z,-0.40
2018-03-17T14:12:42.913Z,-0.40
2018-03-17T14:15:10.439Z,-0.30
2018-03-17T14:17:38.008Z,-0.40
2018-03-17T14:20:05.545Z,-0.40
2018-03-17T14:22:33.228Z,-0.50
2018-03-17T14:25:00.882Z,-0.40
2018-03-17T14:27:28.397Z,-0.40
2018-03-17T14:29:56.710Z,-0.40
2018-03-17T14:32:24.224Z,-0.50
2018-03-17T14:34:51.747Z,-0.50
2018-03-17T14:37:19.283Z,-0.50
2018-03-17T14:39:46.923Z,-0.40
2018-03-17T14:42:14.430Z,-0.50
2018-03-17T14:44:42.096Z,-0.50
2018-03-17T14:47:09.596Z,-0.50
2018-03-17T14:49:37.895Z,-0.50
2018-03-17T14:52:05.385Z,-0.50
2018-03-17T14:54:33.967Z,-0.50
2018-03-17T14:57:01.624Z,-0.40
2018-03-17T14:59:29.212Z,-0.50
2018-03-17T15:01:56.747Z,-0.40
2018-03-17T15:04:24.291Z,-0.50
2018-03-17T15:06:53.633Z,-0.50
2018-03-17T15:09:24.256Z,-0.60
2018-03-17T15:11:51.777Z,-0.60
2018-03-17T15:14:19.352Z,-0.60
2018-03-17T15:16:46.994Z,-0.60
2018-03-17T15:19:14.592Z,-0.70
2018-03-17T15:21:42.109Z,-0.60
2018-03-17T15:24:09.695Z,-0.70
2018-03-17T15:26:37.376Z,-0.70
2018-03-17T15:29:05.265Z,-0.60
2018-03-17T15:31:32.811Z,-0.60
2018-03-17T15:34:00.399Z,-0.70
2018-03-17T15:36:29.007Z,-0.70
2018-03-17T15:38:57.383Z,-0.80
2018-03-17T15:41:24.928Z,-0.70
2018-03-17T15:43:52.452Z,-0.70
2018-03-17T15:46:20.055Z,-0.80
2018-03-17T15:48:47.695Z,-0.80
2018-03-17T15:51:16.005Z,-0.80
2018-03-17T15:53:43.619Z,-0.80
2018-03-17T15:56:11.154Z,-0.80
2018-03-17T15:58:38.734Z,-0.80
2018-03-17T16:01:06.269Z,-0.70
2018-03-17T16:03:33.932Z,-0.60
2018-03-17T16:06:01.483Z,-0.60
2018-03-17T16:08:29.118Z,-0.70
2018-03-17T16:10:56.632Z,-0.70
2018-03-17T16:13:24.187Z,-0.60
2018-03-17T16:15:51.771Z,-0.60
2018-03-17T16:18:20.163Z,-0.50
2018-03-17T16:20:47.756Z,-0.50
2018-03-17T16:23:15.286Z,-0.40
2018-03-17T16:25:43.976Z,-0.50
2018-03-17T16:28:11.584Z,-0.60
2018-03-17T16:30:39.167Z,-0.80
2018-03-17T16:33:06.975Z,-0.80
2018-03-17T16:35:34.854Z,-0.80
2018-03-17T16:38:02.420Z,-0.80
2018-03-17T16:40:30.062Z,-0.80
2018-03-17T16:42:57.592Z,-0.90
2018-03-17T16:45:25.097Z,-0.90
2018-03-17T16:47:52.708Z,-0.90
2018-03-17T16:50:20.249Z,-0.90
2018-03-17T16:52:48.540Z,-1.00
2018-03-17T16:55:18.526Z,-1.00
2018-03-17T16:57:46.138Z,-1.10
2018-03-17T17:00:13.779Z,-1.10
2018-03-17T17:02:42.063Z,-1.10
2018-03-17T17:05:09.648Z,-1.10
2018-03-17T17:07:38.068Z,-1.10
2018-03-17T17:10:05.696Z,-1.00
2018-03-17T17:12:33.192Z,-1.10
2018-03-17T17:15:01.365Z,-1.20
2018-03-17T17:17:28.951Z,-1.30
2018-03-17T17:20:07.576Z,-1.30
2018-03-17T17:22:35.968Z,-1.30
2018-03-17T17:25:03.474Z,-1.30
2018-03-17T17:27:31.112Z,-1.20
2018-03-17T17:29:58.675Z,-1.20
2018-03-17T17:32:26.332Z,-1.10
2018-03-17T17:34:53.884Z,-1.00
2018-03-17T17:37:21.474Z,-1.00
2018-03-17T17:39:48.967Z,-1.00
2018-03-17T17:42:17.363Z,-1.00
2018-03-17T17:44:44.931Z,-1.00
2018-03-17T17:47:13.471Z,-1.00
2018-03-17T17:49:41.460Z,-1.00
2018-03-17T17:52:09.058Z,-1.10
2018-03-17T17:54:36.702Z,-1.20
2018-03-17T17:57:04.230Z,-1.20
2018-03-17T17:59:32.541Z,-1.20
2018-03-17T18:02:00.097Z,-1.20
2018-03-17T18:04:27.656Z,-1.20
2018-03-17T18:06:55.208Z,-1.20
2018-03-17T18:09:22.781Z,-1.20
2018-03-17T18:11:50.319Z,-1.20
2018-03-17T18:14:17.975Z,-1.20
2018-03-17T18:16:46.408Z,-1.30
2018-03-17T18:19:14.043Z,-1.40
2018-03-17T18:21:41.729Z,-1.30
2018-03-17T18:24:09.844Z,-1.30
2018-03-17T18:26:39.079Z,-1.30
2018-03-17T18:29:06.616Z,-1.30
2018-03-17T18:31:34.152Z,-1.30
2018-03-17T18:34:02.460Z,-1.20
2018-03-17T18:36:30.474Z,-1.20
2018-03-17T18:38:57.993Z,-1.20
2018-03-17T18:41:25.529Z,-1.20
2018-03-17T18:43:53.859Z,-1.10
2018-03-17T18:46:21.468Z,-1.10
2018-03-17T18:48:49.826Z,-1.30
2018-03-17T18:51:17.375Z,-1.30
2018-03-17T18:53:44.907Z,-1.20
2018-03-17T18:56:12.426Z,-1.20
2018-03-17T18:58:40.166Z,-1.20
2018-03-17T19:01:07.688Z,-1.20
2018-03-17T19:03:35.181Z,-1.20
2018-03-17T19:06:02.737Z,-1.20
2018-03-17T19:08:30.192Z,-1.20
2018-03-17T19:10:57.866Z,-1.20
2018-03-17T19:13:25.383Z,-1.20
2018-03-17T19:15:52.923Z,-1.30
2018-03-17T19:18:20.717Z,-1.30
2018-03-17T19:20:48.294Z,-1.30
2018-03-17T19:23:15.821Z,-1.20
2018-03-17T19:25:43.484Z,-1.20
2018-03-17T19:28:10.987Z,-1.20
2018-03-17T19:30:39.297Z,-1.20
2018-03-17T19:33:06.831Z,-1.20
2018-03-17T19:35:35.318Z,-1.20
2018-03-17T19:38:03.694Z,-1.30
2018-03-17T19:40:31.968Z,-1.30
2018-03-17T19:43:00.262Z,-1.20
2018-03-17T19:45:27.867Z,-1.20
2018-03-17T19:47:55.365Z,-1.30
2018-03-17T19:50:23.799Z,-1.20
2018-03-17T19:52:51.328Z,-1.30
2018-03-17T19:55:18.888Z,-1.30
2018-03-17T19:57:46.483Z,-1.30
2018-03-17T20:00:14.079Z,-1.30
2018-03-17T20:02:42.339Z,-1.30
2018-03-17T20:05:09.892Z,-1.30
2018-03-17T20:07:38.935Z,-1.30
2018-03-17T20:10:07.206Z,-1.30
2018-03-17T20:12:34.711Z,-1.40
2018-03-17T20:15:02.621Z,-1.40
2018-03-17T20:17:31.038Z,-1.40
2018-03-17T20:19:58.740Z,-1.40
2018-03-17T20:22:27.374Z,-1.30
2018-03-17T20:24:54.918Z,-1.30
2018-03-17T20:27:23.742Z,-1.30
2018-03-17T20:29:52.184Z,-1.30
2018-03-17T20:32:20.501Z,-1.30
2018-03-17T20:34:48.341Z,-1.40
2018-03-17T20:37:15.929Z,-1.30
2018-03-17T20:39:53.515Z,-1.30
2018-03-17T20:42:21.077Z,-1.30
2018-03-17T20:44:48.770Z,-1.20
2018-03-17T20:47:20.581Z,-1.20
2018-03-17T20:49:48.362Z,-1.20
2018-03-17T20:52:16.012Z,-1.10
2018-03-17T20:54:44.632Z,-1.10
2018-03-17T20:57:13.165Z,-1.10
2018-03-17T20:59:42.087Z,-1.10
2018-03-17T21:02:09.742Z,-1.00
2018-03-17T21:04:37.468Z,-1.00
2018-03-17T21:07:05.762Z,-1.00
2018-03-17T21:09:33.340Z,-1.00
2018-03-17T21:12:01.780Z,-1.00
2018-03-17T21:14:30.119Z,-1.00
2018-03-17T21:16:57.711Z,-1.00
2018-03-17T21:19:26.025Z,-1.10
2018-03-17T21:21:53.874Z,-1.10
2018-03-17T21:24:21.452Z,-1.10
2018-03-17T21:26:50.121Z,-1.10
2018-03-17T21:29:17.647Z,-1.10
2018-03-17T21:31:45.966Z,-1.10
2018-03-17T21:34:13.536Z,-1.10
2018-03-17T21:36:41.261Z,-1.10
2018-03-17T21:39:09.926Z,-1.10
2018-03-17T21:41:37.584Z,-1.20
2018-03-17T21:44:05.181Z,-1.10
2018-03-17T21:46:32.708Z,-1.10
2018-03-17T21:49:00.302Z,-1.10
2018-03-17T21:51:27.895Z,-1.10
2018-03-17T21:53:55.390Z,-1.00
2018-03-17T21:56:22.999Z,-1.00
2018-03-17T21:58:50.578Z,-1.00
2018-03-17T22:01:18.392Z,-1.00
2018-03-17T22:03:46.818Z,-0.90
2018-03-17T22:06:24.393Z,-1.00
2018-03-17T22:08:51.960Z,-0.90
2018-03-17T22:11:19.696Z,-1.00
2018-03-17T22:13:47.231Z,-1.00
2018-03-17T22:16:14.748Z,-1.00
2018-03-17T22:18:42.297Z,-0.90
2018-03-17T22:21:09.819Z,-1.00
2018-03-17T22:23:38.570Z,-1.00
2018-03-17T22:26:06.100Z,-1.00
2018-03-17T22:28:33.592Z,-1.00
2018-03-17T22:31:01.937Z,-0.90
2018-03-17T22:33:29.441Z,-0.90
2018-03-17T22:35:58.587Z,-0.90
2018-03-17T22:38:26.131Z,-0.90
2018-03-17T22:40:54.307Z,-0.90
2018-03-17T22:43:21.805Z,-0.80
2018-03-17T22:45:49.401Z,-0.80
2018-03-17T22:48:17.803Z,-0.90
2018-03-17T22:50:45.289Z,-0.90
2018-03-17T22:53:12.836Z,-0.90
2018-03-17T22:55:40.696Z,-0.90
2018-03-17T22:58:08.192Z,-0.90
2018-03-17T23:00:35.803Z,-0.90
2018-03-17T23:03:03.339Z,-0.90
2018-03-17T23:05:31.609Z,-0.90
2018-03-17T23:08:01.218Z,-1.00
2018-03-17T23:10:28.777Z,-1.00
2018-03-17T23:12:56.435Z,-0.90
2018-03-17T23:15:23.969Z,-0.90
2018-03-17T23:17:51.597Z,-0.90
2018-03-17T23:20:19.101Z,-1.00
2018-03-17T23:22:46.648Z,-1.00
2018-03-17T23:25:15.032Z,-0.90
2018-03-17T23:27:43.777Z,-1.00
2018-03-17T23:30:11.327Z,-1.00
2018-03-17T23:32:40.453Z,-0.90
2018-03-17T23:35:08.148Z,-0.90
2018-03-17T23:37:36.715Z,-0.90
2018-03-17T23:40:04.244Z,-0.90
2018-03-17T23:42:31.813Z,-0.90
2018-03-17T23:44:59.440Z,-0.90
2018-03-17T23:47:27.722Z,-0.90
2018-03-17T23:49:55.952Z,-0.90
2018-03-17T23:52:23.590Z,-0.90
2018-03-17T23:54:52.060Z,-0.90
2018-03-17T23:57:20.419Z,-0.90
2018-03-17T23:59:48.178Z,-0.90
